sensor_id;sensor_type;location;lat;lon;timestamp;P1;durP1;ratioP1;P2;durP2;ratioP2
21258;SDS011;10787;53.364;-1.480;2023-06-04T00:00:48;10.60;;;6.15;;
21258;SDS011;10787;53.364;-1.480;2023-06-04T00:03:33;12.40;;;5.22;;
21258;SDS011;10787;53.364;-1.480;2023-06-04T00:06:17;11.90;;;5.82;;
21258;SDS011;10787;53.364;-1.480;2023-06-04T00:09:01;16.60;;;5.80;;
21258;SDS011;10787;53.364;-1.480;2023-06-04T00:11:45;11.02;;;5.88;;
21258;SDS011;10787;53.364;-1.480;2023-06-04T00:14:29;9.57;;;5.47;;
21258;SDS011;10787;53.364;-1.480;2023-06-04T00:17:14;12.40;;;5.90;;
21258;SDS011;10787;53.364;-1.480;2023-06-04T00:19:59;12.55;;;5.28;;
21258;SDS011;10787;53.364;-1.480;2023-06-04T00:22:43;11.90;;;6.00;;
21258;SDS011;10787;53.364;-1.480;2023-06-04T00:25:27;12.50;;;5.80;;
21258;SDS011;10787;53.364;-1.480;2023-06-04T00:28:11;13.50;;;6.00;;
21258;SDS011;10787;53.364;-1.480;2023-06-04T00:30:55;12.75;;;6.30;;
21258;SDS011;10787;53.364;-1.480;2023-06-04T00:33:40;10.68;;;5.32;;
21258;SDS011;10787;53.364;-1.480;2023-06-04T00:36:24;10.07;;;5.68;;
21258;SDS011;10787;53.364;-1.480;2023-06-04T00:39:09;17.40;;;5.43;;
21258;SDS011;10787;53.364;-1.480;2023-06-04T00:41:54;10.67;;;5.50;;
21258;SDS011;10787;53.364;-1.480;2023-06-04T00:44:38;11.87;;;5.30;;
21258;SDS011;10787;53.364;-1.480;2023-06-04T00:47:28;10.17;;;5.13;;
21258;SDS011;10787;53.364;-1.480;2023-06-04T00:50:12;14.67;;;5.63;;
21258;SDS011;10787;53.364;-1.480;2023-06-04T00:52:57;12.80;;;5.67;;
21258;SDS011;10787;53.364;-1.480;2023-06-04T00:55:42;10.07;;;5.40;;
21258;SDS011;10787;53.364;-1.480;2023-06-04T00:58:27;9.60;;;4.90;;
21258;SDS011;10787;53.364;-1.480;2023-06-04T01:01:24;10.10;;;5.10;;
21258;SDS011;10787;53.364;-1.480;2023-06-04T01:04:29;9.57;;;4.70;;
21258;SDS011;10787;53.364;-1.480;2023-06-04T01:07:17;10.50;;;5.10;;
21258;SDS011;10787;53.364;-1.480;2023-06-04T01:10:03;8.33;;;4.53;;
21258;SDS011;10787;53.364;-1.480;2023-06-04T01:12:47;10.90;;;5.20;;
21258;SDS011;10787;53.364;-1.480;2023-06-04T01:15:32;13.47;;;5.37;;
21258;SDS011;10787;53.364;-1.480;2023-06-04T01:18:19;12.70;;;4.70;;
21258;SDS011;10787;53.364;-1.480;2023-06-04T01:21:12;10.37;;;5.43;;
21258;SDS011;10787;53.364;-1.480;2023-06-04T01:24:02;10.43;;;6.30;;
21258;SDS011;10787;53.364;-1.480;2023-06-04T01:26:50;14.17;;;5.03;;
21258;SDS011;10787;53.364;-1.480;2023-06-04T01:29:35;8.90;;;4.30;;
21258;SDS011;10787;53.364;-1.480;2023-06-04T01:32:20;16.00;;;4.80;;
21258;SDS011;10787;53.364;-1.480;2023-06-04T01:35:07;12.40;;;5.13;;
21258;SDS011;10787;53.364;-1.480;2023-06-04T01:37:55;14.23;;;6.60;;
21258;SDS011;10787;53.364;-1.480;2023-06-04T01:40:39;12.90;;;7.40;;
21258;SDS011;10787;53.364;-1.480;2023-06-04T01:43:24;14.37;;;7.63;;
21258;SDS011;10787;53.364;-1.480;2023-06-04T01:46:09;13.60;;;6.67;;
21258;SDS011;10787;53.364;-1.480;2023-06-04T01:48:53;14.27;;;6.97;;
21258;SDS011;10787;53.364;-1.480;2023-06-04T01:51:37;15.07;;;6.40;;
21258;SDS011;10787;53.364;-1.480;2023-06-04T01:54:21;12.40;;;5.90;;
21258;SDS011;10787;53.364;-1.480;2023-06-04T01:57:06;13.60;;;6.00;;
21258;SDS011;10787;53.364;-1.480;2023-06-04T01:59:50;10.93;;;5.77;;
21258;SDS011;10787;53.364;-1.480;2023-06-04T02:02:35;8.47;;;4.50;;
21258;SDS011;10787;53.364;-1.480;2023-06-04T02:05:20;11.27;;;4.63;;
21258;SDS011;10787;53.364;-1.480;2023-06-04T02:08:04;9.63;;;4.50;;
21258;SDS011;10787;53.364;-1.480;2023-06-04T02:10:49;8.97;;;4.20;;
21258;SDS011;10787;53.364;-1.480;2023-06-04T02:13:34;10.13;;;4.53;;
21258;SDS011;10787;53.364;-1.480;2023-06-04T02:16:18;8.80;;;4.13;;
21258;SDS011;10787;53.364;-1.480;2023-06-04T02:19:03;13.70;;;4.47;;
21258;SDS011;10787;53.364;-1.480;2023-06-04T02:21:48;12.90;;;4.30;;
21258;SDS011;10787;53.364;-1.480;2023-06-04T02:24:32;12.40;;;4.63;;
21258;SDS011;10787;53.364;-1.480;2023-06-04T02:27:17;10.33;;;4.50;;
21258;SDS011;10787;53.364;-1.480;2023-06-04T02:30:02;9.43;;;4.30;;
21258;SDS011;10787;53.364;-1.480;2023-06-04T02:32:47;9.90;;;4.33;;
21258;SDS011;10787;53.364;-1.480;2023-06-04T02:35:34;10.23;;;4.33;;
21258;SDS011;10787;53.364;-1.480;2023-06-04T02:38:18;9.27;;;4.17;;
21258;SDS011;10787;53.364;-1.480;2023-06-04T02:41:03;11.13;;;4.37;;
21258;SDS011;10787;53.364;-1.480;2023-06-04T02:43:47;12.80;;;4.70;;
21258;SDS011;10787;53.364;-1.480;2023-06-04T02:46:31;9.77;;;4.80;;
21258;SDS011;10787;53.364;-1.480;2023-06-04T02:49:15;9.67;;;4.30;;
21258;SDS011;10787;53.364;-1.480;2023-06-04T02:52:00;10.20;;;4.70;;
21258;SDS011;10787;53.364;-1.480;2023-06-04T02:54:44;10.30;;;4.27;;
21258;SDS011;10787;53.364;-1.480;2023-06-04T02:57:28;9.23;;;4.47;;
21258;SDS011;10787;53.364;-1.480;2023-06-04T03:00:13;10.33;;;4.60;;
21258;SDS011;10787;53.364;-1.480;2023-06-04T03:02:58;11.70;;;4.80;;
21258;SDS011;10787;53.364;-1.480;2023-06-04T03:05:45;11.77;;;5.03;;
21258;SDS011;10787;53.364;-1.480;2023-06-04T03:08:29;12.53;;;4.93;;
21258;SDS011;10787;53.364;-1.480;2023-06-04T03:11:14;11.20;;;4.80;;
21258;SDS011;10787;53.364;-1.480;2023-06-04T03:13:59;10.77;;;4.73;;
21258;SDS011;10787;53.364;-1.480;2023-06-04T03:16:43;11.73;;;4.27;;
21258;SDS011;10787;53.364;-1.480;2023-06-04T03:19:28;11.70;;;4.53;;
21258;SDS011;10787;53.364;-1.480;2023-06-04T03:22:13;9.10;;;4.80;;
21258;SDS011;10787;53.364;-1.480;2023-06-04T03:24:58;8.30;;;4.50;;
21258;SDS011;10787;53.364;-1.480;2023-06-04T03:27:42;10.10;;;4.77;;
21258;SDS011;10787;53.364;-1.480;2023-06-04T03:30:27;12.43;;;4.60;;
21258;SDS011;10787;53.364;-1.480;2023-06-04T03:33:11;11.83;;;4.70;;
21258;SDS011;10787;53.364;-1.480;2023-06-04T03:35:55;11.57;;;4.90;;
21258;SDS011;10787;53.364;-1.480;2023-06-04T03:38:44;12.03;;;4.90;;
21258;SDS011;10787;53.364;-1.480;2023-06-04T03:41:29;12.20;;;5.10;;
21258;SDS011;10787;53.364;-1.480;2023-06-04T03:44:15;12.70;;;5.30;;
21258;SDS011;10787;53.364;-1.480;2023-06-04T03:47:00;10.60;;;4.73;;
21258;SDS011;10787;53.364;-1.480;2023-06-04T03:49:44;12.23;;;5.03;;
21258;SDS011;10787;53.364;-1.480;2023-06-04T03:52:28;12.93;;;5.40;;
21258;SDS011;10787;53.364;-1.480;2023-06-04T03:55:13;9.87;;;5.47;;
21258;SDS011;10787;53.364;-1.480;2023-06-04T03:57:57;10.70;;;5.43;;
21258;SDS011;10787;53.364;-1.480;2023-06-04T04:00:42;11.20;;;5.43;;
21258;SDS011;10787;53.364;-1.480;2023-06-04T04:03:26;10.03;;;5.17;;
21258;SDS011;10787;53.364;-1.480;2023-06-04T04:06:15;13.63;;;5.40;;
21258;SDS011;10787;53.364;-1.480;2023-06-04T04:08:59;12.43;;;5.33;;
21258;SDS011;10787;53.364;-1.480;2023-06-04T04:11:44;12.77;;;5.77;;
21258;SDS011;10787;53.364;-1.480;2023-06-04T04:14:28;11.80;;;5.37;;
21258;SDS011;10787;53.364;-1.480;2023-06-04T04:17:13;11.10;;;5.03;;
21258;SDS011;10787;53.364;-1.480;2023-06-04T04:19:58;10.30;;;5.27;;
21258;SDS011;10787;53.364;-1.480;2023-06-04T04:22:43;10.17;;;5.50;;
21258;SDS011;10787;53.364;-1.480;2023-06-04T04:25:27;10.30;;;5.80;;
21258;SDS011;10787;53.364;-1.480;2023-06-04T04:28:11;10.50;;;5.43;;
21258;SDS011;10787;53.364;-1.480;2023-06-04T04:30:55;11.57;;;5.60;;
21258;SDS011;10787;53.364;-1.480;2023-06-04T04:33:40;8.47;;;5.67;;
21258;SDS011;10787;53.364;-1.480;2023-06-04T04:36:24;13.90;;;6.20;;
21258;SDS011;10787;53.364;-1.480;2023-06-04T04:39:09;12.17;;;5.80;;
21258;SDS011;10787;53.364;-1.480;2023-06-04T04:41:54;11.83;;;5.20;;
21258;SDS011;10787;53.364;-1.480;2023-06-04T04:44:39;9.77;;;5.13;;
21258;SDS011;10787;53.364;-1.480;2023-06-04T04:47:23;10.63;;;5.30;;
21258;SDS011;10787;53.364;-1.480;2023-06-04T04:50:07;12.10;;;5.80;;
21258;SDS011;10787;53.364;-1.480;2023-06-04T04:52:52;12.07;;;5.45;;
21258;SDS011;10787;53.364;-1.480;2023-06-04T04:55:36;10.47;;;5.00;;
21258;SDS011;10787;53.364;-1.480;2023-06-04T04:58:20;9.40;;;5.10;;
21258;SDS011;10787;53.364;-1.480;2023-06-04T05:01:05;8.53;;;4.90;;
21258;SDS011;10787;53.364;-1.480;2023-06-04T05:03:49;11.47;;;5.23;;
21258;SDS011;10787;53.364;-1.480;2023-06-04T05:06:33;8.80;;;4.30;;
21258;SDS011;10787;53.364;-1.480;2023-06-04T05:09:17;11.00;;;4.63;;
21258;SDS011;10787;53.364;-1.480;2023-06-04T05:12:02;8.15;;;3.70;;
21258;SDS011;10787;53.364;-1.480;2023-06-04T05:14:47;7.80;;;3.88;;
21258;SDS011;10787;53.364;-1.480;2023-06-04T05:17:31;7.93;;;3.55;;
21258;SDS011;10787;53.364;-1.480;2023-06-04T05:20:15;6.10;;;3.80;;
21258;SDS011;10787;53.364;-1.480;2023-06-04T05:23:00;7.32;;;3.63;;
21258;SDS011;10787;53.364;-1.480;2023-06-04T05:25:45;6.40;;;3.45;;
21258;SDS011;10787;53.364;-1.480;2023-06-04T05:28:32;6.00;;;3.20;;
21258;SDS011;10787;53.364;-1.480;2023-06-04T05:31:17;10.97;;;3.60;;
21258;SDS011;10787;53.364;-1.480;2023-06-04T05:34:02;7.57;;;3.80;;
21258;SDS011;10787;53.364;-1.480;2023-06-04T05:36:48;10.07;;;4.05;;
21258;SDS011;10787;53.364;-1.480;2023-06-04T05:39:32;8.77;;;3.88;;
21258;SDS011;10787;53.364;-1.480;2023-06-04T05:42:16;7.53;;;4.07;;
21258;SDS011;10787;53.364;-1.480;2023-06-04T05:45:00;5.03;;;3.15;;
21258;SDS011;10787;53.364;-1.480;2023-06-04T05:47:45;8.00;;;4.70;;
21258;SDS011;10787;53.364;-1.480;2023-06-04T05:50:30;9.15;;;4.95;;
21258;SDS011;10787;53.364;-1.480;2023-06-04T05:53:15;8.95;;;4.28;;
21258;SDS011;10787;53.364;-1.480;2023-06-04T05:55:59;7.03;;;4.05;;
21258;SDS011;10787;53.364;-1.480;2023-06-04T05:58:44;8.75;;;3.55;;
21258;SDS011;10787;53.364;-1.480;2023-06-04T06:01:34;6.97;;;3.92;;
21258;SDS011;10787;53.364;-1.480;2023-06-04T06:04:18;7.85;;;3.97;;
21258;SDS011;10787;53.364;-1.480;2023-06-04T06:07:03;7.50;;;4.13;;
21258;SDS011;10787;53.364;-1.480;2023-06-04T06:09:48;7.80;;;4.20;;
21258;SDS011;10787;53.364;-1.480;2023-06-04T06:12:32;7.03;;;3.50;;
21258;SDS011;10787;53.364;-1.480;2023-06-04T06:15:16;6.47;;;3.30;;
21258;SDS011;10787;53.364;-1.480;2023-06-04T06:18:00;6.63;;;3.80;;
21258;SDS011;10787;53.364;-1.480;2023-06-04T06:20:45;6.22;;;3.13;;
21258;SDS011;10787;53.364;-1.480;2023-06-04T06:23:30;6.28;;;3.40;;
21258;SDS011;10787;53.364;-1.480;2023-06-04T06:26:14;7.57;;;3.50;;
21258;SDS011;10787;53.364;-1.480;2023-06-04T06:28:59;5.70;;;3.40;;
21258;SDS011;10787;53.364;-1.480;2023-06-04T06:31:44;6.45;;;3.22;;
21258;SDS011;10787;53.364;-1.480;2023-06-04T06:34:28;7.45;;;3.45;;
21258;SDS011;10787;53.364;-1.480;2023-06-04T06:37:12;6.28;;;3.75;;
21258;SDS011;10787;53.364;-1.480;2023-06-04T06:39:56;7.60;;;3.38;;
21258;SDS011;10787;53.364;-1.480;2023-06-04T06:42:41;5.35;;;3.20;;
21258;SDS011;10787;53.364;-1.480;2023-06-04T06:45:25;6.15;;;3.63;;
21258;SDS011;10787;53.364;-1.480;2023-06-04T06:48:09;5.32;;;3.60;;
21258;SDS011;10787;53.364;-1.480;2023-06-04T06:50:54;6.25;;;3.33;;
21258;SDS011;10787;53.364;-1.480;2023-06-04T06:53:38;7.18;;;3.60;;
21258;SDS011;10787;53.364;-1.480;2023-06-04T06:56:23;7.80;;;4.05;;
21258;SDS011;10787;53.364;-1.480;2023-06-04T06:59:07;6.05;;;3.90;;
21258;SDS011;10787;53.364;-1.480;2023-06-04T07:01:51;7.00;;;3.70;;
21258;SDS011;10787;53.364;-1.480;2023-06-04T07:04:36;7.50;;;3.53;;
21258;SDS011;10787;53.364;-1.480;2023-06-04T07:07:20;6.53;;;3.88;;
21258;SDS011;10787;53.364;-1.480;2023-06-04T07:10:05;6.05;;;3.38;;
21258;SDS011;10787;53.364;-1.480;2023-06-04T07:12:50;7.75;;;3.67;;
21258;SDS011;10787;53.364;-1.480;2023-06-04T07:15:35;5.53;;;3.88;;
21258;SDS011;10787;53.364;-1.480;2023-06-04T07:18:19;7.07;;;4.40;;
21258;SDS011;10787;53.364;-1.480;2023-06-04T07:21:04;7.35;;;4.10;;
21258;SDS011;10787;53.364;-1.480;2023-06-04T07:23:49;7.57;;;4.32;;
21258;SDS011;10787;53.364;-1.480;2023-06-04T07:26:34;6.30;;;4.18;;
21258;SDS011;10787;53.364;-1.480;2023-06-04T07:29:19;9.35;;;3.97;;
21258;SDS011;10787;53.364;-1.480;2023-06-04T07:32:04;7.63;;;4.03;;
21258;SDS011;10787;53.364;-1.480;2023-06-04T07:34:49;6.78;;;4.45;;
21258;SDS011;10787;53.364;-1.480;2023-06-04T07:37:33;6.65;;;4.40;;
21258;SDS011;10787;53.364;-1.480;2023-06-04T07:40:17;6.45;;;4.90;;
21258;SDS011;10787;53.364;-1.480;2023-06-04T07:43:02;6.90;;;4.32;;
21258;SDS011;10787;53.364;-1.480;2023-06-04T07:45:46;8.55;;;4.65;;
21258;SDS011;10787;53.364;-1.480;2023-06-04T07:48:31;7.20;;;4.60;;
21258;SDS011;10787;53.364;-1.480;2023-06-04T07:51:15;5.68;;;4.03;;
21258;SDS011;10787;53.364;-1.480;2023-06-04T07:54:00;8.63;;;4.75;;
21258;SDS011;10787;53.364;-1.480;2023-06-04T07:56:45;7.80;;;4.63;;
21258;SDS011;10787;53.364;-1.480;2023-06-04T07:59:30;9.10;;;4.68;;
21258;SDS011;10787;53.364;-1.480;2023-06-04T08:02:14;5.95;;;3.80;;
21258;SDS011;10787;53.364;-1.480;2023-06-04T08:05:00;7.75;;;4.45;;
21258;SDS011;10787;53.364;-1.480;2023-06-04T08:07:46;8.52;;;4.70;;
21258;SDS011;10787;53.364;-1.480;2023-06-04T08:10:31;7.68;;;3.90;;
21258;SDS011;10787;53.364;-1.480;2023-06-04T08:13:15;5.43;;;4.00;;
21258;SDS011;10787;53.364;-1.480;2023-06-04T08:16:00;8.10;;;4.20;;
21258;SDS011;10787;53.364;-1.480;2023-06-04T08:18:44;7.07;;;4.20;;
21258;SDS011;10787;53.364;-1.480;2023-06-04T08:21:28;5.43;;;4.00;;
21258;SDS011;10787;53.364;-1.480;2023-06-04T08:24:13;7.88;;;4.22;;
21258;SDS011;10787;53.364;-1.480;2023-06-04T08:26:57;9.55;;;4.20;;
21258;SDS011;10787;53.364;-1.480;2023-06-04T08:29:41;8.75;;;3.97;;
21258;SDS011;10787;53.364;-1.480;2023-06-04T08:32:25;7.43;;;3.90;;
21258;SDS011;10787;53.364;-1.480;2023-06-04T08:35:10;6.60;;;4.10;;
21258;SDS011;10787;53.364;-1.480;2023-06-04T08:37:54;6.90;;;3.88;;
21258;SDS011;10787;53.364;-1.480;2023-06-04T08:40:38;7.18;;;3.72;;
21258;SDS011;10787;53.364;-1.480;2023-06-04T08:43:22;5.85;;;3.65;;
21258;SDS011;10787;53.364;-1.480;2023-06-04T08:46:08;7.63;;;3.95;;
21258;SDS011;10787;53.364;-1.480;2023-06-04T08:48:54;6.15;;;3.85;;
21258;SDS011;10787;53.364;-1.480;2023-06-04T08:51:40;6.68;;;3.60;;
21258;SDS011;10787;53.364;-1.480;2023-06-04T08:54:24;9.52;;;4.10;;
21258;SDS011;10787;53.364;-1.480;2023-06-04T08:57:09;7.47;;;3.78;;
21258;SDS011;10787;53.364;-1.480;2023-06-04T08:59:54;7.13;;;4.10;;
21258;SDS011;10787;53.364;-1.480;2023-06-04T09:02:38;7.38;;;3.70;;
21258;SDS011;10787;53.364;-1.480;2023-06-04T09:05:23;5.57;;;3.47;;
21258;SDS011;10787;53.364;-1.480;2023-06-04T09:08:08;7.43;;;3.70;;
21258;SDS011;10787;53.364;-1.480;2023-06-04T09:10:55;6.53;;;4.07;;
21258;SDS011;10787;53.364;-1.480;2023-06-04T09:13:39;5.70;;;3.70;;
21258;SDS011;10787;53.364;-1.480;2023-06-04T09:16:26;6.80;;;3.80;;
21258;SDS011;10787;53.364;-1.480;2023-06-04T09:19:11;5.13;;;3.58;;
21258;SDS011;10787;53.364;-1.480;2023-06-04T09:21:56;7.28;;;3.67;;
21258;SDS011;10787;53.364;-1.480;2023-06-04T09:24:43;6.20;;;3.80;;
21258;SDS011;10787;53.364;-1.480;2023-06-04T09:27:37;5.65;;;3.80;;
21258;SDS011;10787;53.364;-1.480;2023-06-04T09:30:23;6.35;;;3.90;;
21258;SDS011;10787;53.364;-1.480;2023-06-04T09:33:08;7.32;;;3.85;;
21258;SDS011;10787;53.364;-1.480;2023-06-04T09:35:57;7.00;;;4.05;;
21258;SDS011;10787;53.364;-1.480;2023-06-04T09:38:41;5.95;;;4.03;;
21258;SDS011;10787;53.364;-1.480;2023-06-04T09:41:26;5.38;;;4.10;;
21258;SDS011;10787;53.364;-1.480;2023-06-04T09:44:11;6.82;;;4.10;;
21258;SDS011;10787;53.364;-1.480;2023-06-04T09:46:56;7.93;;;3.80;;
21258;SDS011;10787;53.364;-1.480;2023-06-04T09:49:42;5.05;;;3.63;;
21258;SDS011;10787;53.364;-1.480;2023-06-04T09:52:33;5.30;;;3.78;;
21258;SDS011;10787;53.364;-1.480;2023-06-04T09:55:18;6.32;;;3.70;;
21258;SDS011;10787;53.364;-1.480;2023-06-04T09:58:07;7.57;;;3.70;;
21258;SDS011;10787;53.364;-1.480;2023-06-04T10:00:54;8.68;;;3.80;;
21258;SDS011;10787;53.364;-1.480;2023-06-04T10:03:42;6.40;;;3.85;;
21258;SDS011;10787;53.364;-1.480;2023-06-04T10:06:33;6.50;;;3.95;;
21258;SDS011;10787;53.364;-1.480;2023-06-04T10:09:19;6.88;;;3.50;;
21258;SDS011;10787;53.364;-1.480;2023-06-04T10:12:05;5.43;;;3.60;;
21258;SDS011;10787;53.364;-1.480;2023-06-04T10:14:51;5.55;;;3.65;;
21258;SDS011;10787;53.364;-1.480;2023-06-04T10:17:38;6.55;;;3.72;;
21258;SDS011;10787;53.364;-1.480;2023-06-04T10:20:24;3.72;;;3.00;;
21258;SDS011;10787;53.364;-1.480;2023-06-04T10:23:10;7.78;;;3.88;;
21258;SDS011;10787;53.364;-1.480;2023-06-04T10:25:54;5.70;;;3.63;;
21258;SDS011;10787;53.364;-1.480;2023-06-04T10:28:40;7.75;;;3.80;;
21258;SDS011;10787;53.364;-1.480;2023-06-04T10:31:41;5.75;;;3.42;;
21258;SDS011;10787;53.364;-1.480;2023-06-04T10:34:26;6.45;;;3.70;;
21258;SDS011;10787;53.364;-1.480;2023-06-04T10:37:23;7.75;;;3.75;;
21258;SDS011;10787;53.364;-1.480;2023-06-04T10:40:12;5.38;;;3.92;;
21258;SDS011;10787;53.364;-1.480;2023-06-04T10:42:57;5.55;;;3.72;;
21258;SDS011;10787;53.364;-1.480;2023-06-04T10:45:51;7.28;;;4.10;;
21258;SDS011;10787;53.364;-1.480;2023-06-04T10:48:35;6.55;;;4.32;;
21258;SDS011;10787;53.364;-1.480;2023-06-04T10:51:32;6.07;;;4.15;;
21258;SDS011;10787;53.364;-1.480;2023-06-04T10:54:23;6.10;;;4.25;;
21258;SDS011;10787;53.364;-1.480;2023-06-04T10:57:15;7.65;;;4.78;;
21258;SDS011;10787;53.364;-1.480;2023-06-04T11:00:04;8.25;;;4.55;;
21258;SDS011;10787;53.364;-1.480;2023-06-04T11:02:56;8.25;;;4.30;;
21258;SDS011;10787;53.364;-1.480;2023-06-04T11:05:44;6.10;;;3.90;;
21258;SDS011;10787;53.364;-1.480;2023-06-04T11:08:31;6.43;;;3.97;;
21258;SDS011;10787;53.364;-1.480;2023-06-04T11:11:16;5.18;;;3.55;;
21258;SDS011;10787;53.364;-1.480;2023-06-04T11:14:10;6.72;;;4.10;;
21258;SDS011;10787;53.364;-1.480;2023-06-04T11:17:09;6.40;;;4.07;;
21258;SDS011;10787;53.364;-1.480;2023-06-04T11:19:55;6.10;;;4.20;;
21258;SDS011;10787;53.364;-1.480;2023-06-04T11:22:39;6.80;;;3.80;;
21258;SDS011;10787;53.364;-1.480;2023-06-04T11:25:26;6.60;;;3.95;;
21258;SDS011;10787;53.364;-1.480;2023-06-04T11:28:16;5.70;;;4.10;;
21258;SDS011;10787;53.364;-1.480;2023-06-04T11:31:02;5.45;;;4.03;;
21258;SDS011;10787;53.364;-1.480;2023-06-04T11:33:47;7.88;;;4.00;;
21258;SDS011;10787;53.364;-1.480;2023-06-04T11:36:31;6.20;;;4.15;;
21258;SDS011;10787;53.364;-1.480;2023-06-04T11:39:16;6.38;;;4.78;;
21258;SDS011;10787;53.364;-1.480;2023-06-04T11:42:03;6.47;;;3.70;;
21258;SDS011;10787;53.364;-1.480;2023-06-04T11:44:54;6.65;;;3.90;;
21258;SDS011;10787;53.364;-1.480;2023-06-04T11:47:53;4.95;;;3.83;;
21258;SDS011;10787;53.364;-1.480;2023-06-04T11:50:39;7.93;;;3.58;;
21258;SDS011;10787;53.364;-1.480;2023-06-04T11:53:24;4.35;;;3.30;;
21258;SDS011;10787;53.364;-1.480;2023-06-04T11:56:09;6.47;;;3.50;;
21258;SDS011;10787;53.364;-1.480;2023-06-04T11:58:55;5.50;;;3.55;;
21258;SDS011;10787;53.364;-1.480;2023-06-04T12:01:40;14.93;;;3.88;;
21258;SDS011;10787;53.364;-1.480;2023-06-04T12:04:29;9.75;;;5.05;;
21258;SDS011;10787;53.364;-1.480;2023-06-04T12:07:19;6.78;;;4.05;;
21258;SDS011;10787;53.364;-1.480;2023-06-04T12:10:08;5.20;;;4.13;;
21258;SDS011;10787;53.364;-1.480;2023-06-04T12:12:56;4.43;;;3.60;;
21258;SDS011;10787;53.364;-1.480;2023-06-04T12:15:40;6.45;;;3.63;;
21258;SDS011;10787;53.364;-1.480;2023-06-04T12:18:25;6.07;;;3.75;;
21258;SDS011;10787;53.364;-1.480;2023-06-04T12:21:23;5.18;;;2.95;;
21258;SDS011;10787;53.364;-1.480;2023-06-04T12:24:12;5.10;;;3.20;;
21258;SDS011;10787;53.364;-1.480;2023-06-04T12:27:04;4.78;;;3.10;;
21258;SDS011;10787;53.364;-1.480;2023-06-04T12:30:00;5.70;;;3.22;;
21258;SDS011;10787;53.364;-1.480;2023-06-04T12:32:48;5.07;;;3.13;;
21258;SDS011;10787;53.364;-1.480;2023-06-04T12:35:34;6.10;;;3.22;;
21258;SDS011;10787;53.364;-1.480;2023-06-04T12:38:19;4.45;;;3.40;;
21258;SDS011;10787;53.364;-1.480;2023-06-04T12:41:03;6.32;;;3.28;;
21258;SDS011;10787;53.364;-1.480;2023-06-04T12:43:47;6.43;;;3.50;;
21258;SDS011;10787;53.364;-1.480;2023-06-04T12:46:32;5.80;;;3.60;;
21258;SDS011;10787;53.364;-1.480;2023-06-04T12:49:16;4.97;;;3.45;;
21258;SDS011;10787;53.364;-1.480;2023-06-04T12:52:01;5.82;;;3.50;;
21258;SDS011;10787;53.364;-1.480;2023-06-04T12:54:45;6.22;;;3.30;;
21258;SDS011;10787;53.364;-1.480;2023-06-04T12:57:31;8.15;;;4.07;;
21258;SDS011;10787;53.364;-1.480;2023-06-04T13:00:15;4.50;;;3.20;;
21258;SDS011;10787;53.364;-1.480;2023-06-04T13:03:00;5.40;;;3.20;;
21258;SDS011;10787;53.364;-1.480;2023-06-04T13:05:45;6.40;;;3.45;;
21258;SDS011;10787;53.364;-1.480;2023-06-04T13:08:29;4.60;;;3.35;;
21258;SDS011;10787;53.364;-1.480;2023-06-04T13:11:13;4.63;;;3.50;;
21258;SDS011;10787;53.364;-1.480;2023-06-04T13:13:57;7.53;;;3.50;;
21258;SDS011;10787;53.364;-1.480;2023-06-04T13:16:42;6.13;;;3.38;;
21258;SDS011;10787;53.364;-1.480;2023-06-04T13:19:28;5.82;;;3.28;;
21258;SDS011;10787;53.364;-1.480;2023-06-04T13:22:12;5.90;;;3.10;;
21258;SDS011;10787;53.364;-1.480;2023-06-04T13:24:57;5.90;;;3.17;;
21258;SDS011;10787;53.364;-1.480;2023-06-04T13:27:41;3.92;;;3.10;;
21258;SDS011;10787;53.364;-1.480;2023-06-04T13:30:25;5.13;;;3.20;;
21258;SDS011;10787;53.364;-1.480;2023-06-04T13:33:09;4.22;;;3.28;;
21258;SDS011;10787;53.364;-1.480;2023-06-04T13:35:53;4.43;;;3.10;;
21258;SDS011;10787;53.364;-1.480;2023-06-04T13:38:38;6.47;;;3.80;;
21258;SDS011;10787;53.364;-1.480;2023-06-04T13:41:24;6.45;;;3.50;;
21258;SDS011;10787;53.364;-1.480;2023-06-04T13:44:10;5.70;;;3.15;;
21258;SDS011;10787;53.364;-1.480;2023-06-04T13:46:54;5.60;;;3.00;;
21258;SDS011;10787;53.364;-1.480;2023-06-04T13:49:38;5.82;;;3.72;;
21258;SDS011;10787;53.364;-1.480;2023-06-04T13:52:22;4.70;;;2.90;;
21258;SDS011;10787;53.364;-1.480;2023-06-04T13:55:07;5.15;;;2.80;;
21258;SDS011;10787;53.364;-1.480;2023-06-04T13:57:51;4.70;;;3.00;;
21258;SDS011;10787;53.364;-1.480;2023-06-04T14:00:35;5.90;;;3.00;;
21258;SDS011;10787;53.364;-1.480;2023-06-04T14:03:20;5.13;;;2.83;;
21258;SDS011;10787;53.364;-1.480;2023-06-04T14:06:04;3.58;;;2.88;;
21258;SDS011;10787;53.364;-1.480;2023-06-04T14:08:48;6.30;;;3.03;;
21258;SDS011;10787;53.364;-1.480;2023-06-04T14:11:33;5.63;;;3.42;;
21258;SDS011;10787;53.364;-1.480;2023-06-04T14:14:17;5.20;;;3.08;;
21258;SDS011;10787;53.364;-1.480;2023-06-04T14:17:02;5.85;;;2.97;;
21258;SDS011;10787;53.364;-1.480;2023-06-04T14:19:47;6.47;;;2.90;;
21258;SDS011;10787;53.364;-1.480;2023-06-04T14:22:31;6.45;;;2.95;;
21258;SDS011;10787;53.364;-1.480;2023-06-04T14:25:16;6.82;;;3.40;;
21258;SDS011;10787;53.364;-1.480;2023-06-04T14:28:00;4.88;;;2.80;;
21258;SDS011;10787;53.364;-1.480;2023-06-04T14:30:46;5.68;;;3.10;;
21258;SDS011;10787;53.364;-1.480;2023-06-04T14:33:30;8.43;;;3.22;;
21258;SDS011;10787;53.364;-1.480;2023-06-04T14:36:14;4.90;;;3.10;;
21258;SDS011;10787;53.364;-1.480;2023-06-04T14:38:59;4.95;;;3.10;;
21258;SDS011;10787;53.364;-1.480;2023-06-04T14:41:43;4.40;;;3.00;;
21258;SDS011;10787;53.364;-1.480;2023-06-04T14:44:28;5.07;;;3.45;;
21258;SDS011;10787;53.364;-1.480;2023-06-04T14:47:12;3.85;;;2.78;;
21258;SDS011;10787;53.364;-1.480;2023-06-04T14:49:56;4.03;;;3.10;;
21258;SDS011;10787;53.364;-1.480;2023-06-04T14:52:40;5.88;;;3.35;;
21258;SDS011;10787;53.364;-1.480;2023-06-04T14:55:24;5.18;;;2.88;;
21258;SDS011;10787;53.364;-1.480;2023-06-04T14:58:09;6.65;;;3.30;;
21258;SDS011;10787;53.364;-1.480;2023-06-04T15:00:55;4.88;;;2.75;;
21258;SDS011;10787;53.364;-1.480;2023-06-04T15:03:42;4.95;;;3.00;;
21258;SDS011;10787;53.364;-1.480;2023-06-04T15:06:26;6.72;;;3.13;;
21258;SDS011;10787;53.364;-1.480;2023-06-04T15:09:10;5.65;;;3.03;;
21258;SDS011;10787;53.364;-1.480;2023-06-04T15:11:54;7.00;;;2.97;;
21258;SDS011;10787;53.364;-1.480;2023-06-04T15:14:38;6.47;;;3.10;;
21258;SDS011;10787;53.364;-1.480;2023-06-04T15:17:23;6.43;;;4.50;;
21258;SDS011;10787;53.364;-1.480;2023-06-04T15:20:07;5.60;;;3.90;;
21258;SDS011;10787;53.364;-1.480;2023-06-04T15:22:51;5.57;;;3.13;;
21258;SDS011;10787;53.364;-1.480;2023-06-04T15:25:36;5.20;;;3.45;;
21258;SDS011;10787;53.364;-1.480;2023-06-04T15:28:22;4.68;;;3.13;;
21258;SDS011;10787;53.364;-1.480;2023-06-04T15:31:07;5.28;;;3.88;;
21258;SDS011;10787;53.364;-1.480;2023-06-04T15:33:51;8.75;;;3.20;;
21258;SDS011;10787;53.364;-1.480;2023-06-04T15:36:35;4.00;;;2.63;;
21258;SDS011;10787;53.364;-1.480;2023-06-04T15:39:21;8.32;;;2.90;;
21258;SDS011;10787;53.364;-1.480;2023-06-04T15:42:05;8.13;;;3.10;;
21258;SDS011;10787;53.364;-1.480;2023-06-04T15:44:51;5.72;;;2.97;;
21258;SDS011;10787;53.364;-1.480;2023-06-04T15:47:35;6.82;;;2.90;;
21258;SDS011;10787;53.364;-1.480;2023-06-04T15:50:19;4.32;;;3.03;;
21258;SDS011;10787;53.364;-1.480;2023-06-04T15:53:03;7.00;;;3.63;;
21258;SDS011;10787;53.364;-1.480;2023-06-04T15:55:48;5.13;;;3.63;;
21258;SDS011;10787;53.364;-1.480;2023-06-04T15:58:33;6.10;;;2.88;;
21258;SDS011;10787;53.364;-1.480;2023-06-04T16:01:18;3.75;;;3.10;;
21258;SDS011;10787;53.364;-1.480;2023-06-04T16:04:02;4.55;;;2.75;;
21258;SDS011;10787;53.364;-1.480;2023-06-04T16:06:46;4.80;;;2.75;;
21258;SDS011;10787;53.364;-1.480;2023-06-04T16:09:31;5.30;;;3.15;;
21258;SDS011;10787;53.364;-1.480;2023-06-04T16:12:17;5.40;;;3.65;;
21258;SDS011;10787;53.364;-1.480;2023-06-04T16:15:02;4.65;;;2.80;;
21258;SDS011;10787;53.364;-1.480;2023-06-04T16:17:47;3.35;;;2.60;;